sensor_id;sensor_type;location;lat;lon;timestamp;pressure;altitude;pressure_sealevel;temperature;humidity
48390;BME280;34643;47.964;7.982;2024-01-30T00:01:40;98041.66;;;16.72;59.37
48390;BME280;34643;47.964;7.982;2024-01-30T00:04:05;98049.56;;;16.70;59.46
48390;BME280;34643;47.964;7.982;2024-01-30T00:06:31;98038.19;;;16.71;59.33
48390;BME280;34643;47.964;7.982;2024-01-30T00:08:56;98051.31;;;16.70;59.50
48390;BME280;34643;47.964;7.982;2024-01-30T00:11:22;98045.94;;;16.73;59.22
48390;BME280;34643;47.964;7.982;2024-01-30T00:13:47;98050.47;;;16.69;59.29
48390;BME280;34643;47.964;7.982;2024-01-30T00:16:22;98043.59;;;16.68;59.58
48390;BME280;34643;47.964;7.982;2024-01-30T00:18:49;98045.09;;;16.72;59.34
48390;BME280;34643;47.964;7.982;2024-01-30T00:21:14;98039.97;;;16.71;59.34
48390;BME280;34643;47.964;7.982;2024-01-30T00:23:40;98050.31;;;16.72;59.59
48390;BME280;34643;47.964;7.982;2024-01-30T00:26:05;98054.69;;;16.72;59.41
48390;BME280;34643;47.964;7.982;2024-01-30T00:28:31;98035.56;;;16.71;59.34
48390;BME280;34643;47.964;7.982;2024-01-30T00:30:57;98042.56;;;16.71;59.53
48390;BME280;34643;47.964;7.982;2024-01-30T00:33:22;98051.16;;;16.73;59.50
48390;BME280;34643;47.964;7.982;2024-01-30T00:35:48;98033.91;;;16.70;59.45
48390;BME280;34643;47.964;7.982;2024-01-30T00:38:13;98035.69;;;16.70;59.58
48390;BME280;34643;47.964;7.982;2024-01-30T00:40:38;98039.97;;;16.71;59.52
48390;BME280;34643;47.964;7.982;2024-01-30T00:43:03;98041.81;;;16.69;59.66
48390;BME280;34643;47.964;7.982;2024-01-30T00:45:29;98050.38;;;16.71;59.58
48390;BME280;34643;47.964;7.982;2024-01-30T00:47:54;98042.56;;;16.71;59.58
48390;BME280;34643;47.964;7.982;2024-01-30T00:50:20;98048.78;;;16.68;59.61
48390;BME280;34643;47.964;7.982;2024-01-30T00:52:45;98049.56;;;16.70;59.38
48390;BME280;34643;47.964;7.982;2024-01-30T00:55:10;98046.94;;;16.70;59.55
48390;BME280;34643;47.964;7.982;2024-01-30T00:57:36;98048.63;;;16.71;59.49
48390;BME280;34643;47.964;7.982;2024-01-30T01:00:01;98051.31;;;16.70;59.37
48390;BME280;34643;47.964;7.982;2024-01-30T01:02:27;98049.63;;;16.69;59.57
48390;BME280;34643;47.964;7.982;2024-01-30T01:04:52;98040.91;;;16.70;59.53
48390;BME280;34643;47.964;7.982;2024-01-30T01:07:18;98047.03;;;16.69;59.52
48390;BME280;34643;47.964;7.982;2024-01-30T01:09:43;98047.78;;;16.71;59.43
48390;BME280;34643;47.964;7.982;2024-01-30T01:12:08;98044.41;;;16.69;59.35
48390;BME280;34643;47.964;7.982;2024-01-30T01:14:33;98045.09;;;16.72;59.60
48390;BME280;34643;47.964;7.982;2024-01-30T01:16:59;98051.22;;;16.71;59.36
48390;BME280;34643;47.964;7.982;2024-01-30T01:19:24;98055.59;;;16.71;59.31
48390;BME280;34643;47.964;7.982;2024-01-30T01:21:50;98040.78;;;16.71;59.33
48390;BME280;34643;47.964;7.982;2024-01-30T01:24:15;98055.59;;;16.71;59.45
48390;BME280;34643;47.964;7.982;2024-01-30T01:26:40;98054.84;;;16.69;59.53
48390;BME280;34643;47.964;7.982;2024-01-30T01:29:06;98049.63;;;16.69;59.52
48390;BME280;34643;47.964;7.982;2024-01-30T01:31:38;98043.41;;;16.71;59.28
48390;BME280;34643;47.964;7.982;2024-01-30T01:34:09;98051.31;;;16.70;59.44
48390;BME280;34643;47.964;7.982;2024-01-30T01:36:34;98041.66;;;16.72;59.36
48390;BME280;34643;47.964;7.982;2024-01-30T01:39:00;98040.91;;;16.70;59.44
48390;BME280;34643;47.964;7.982;2024-01-30T01:41:29;98046.13;;;16.70;59.29
48390;BME280;34643;47.964;7.982;2024-01-30T01:43:54;98046.94;;;16.70;59.44
48390;BME280;34643;47.964;7.982;2024-01-30T01:46:19;98049.56;;;16.70;59.44
48390;BME280;34643;47.964;7.982;2024-01-30T01:48:45;98042.56;;;16.71;59.38
48390;BME280;34643;47.964;7.982;2024-01-30T01:51:10;98038.38;;;16.68;59.29
48390;BME280;34643;47.964;7.982;2024-01-30T01:53:35;98040.03;;;16.69;59.44
48390;BME280;34643;47.964;7.982;2024-01-30T01:56:01;98035.69;;;16.70;59.30
48390;BME280;34643;47.964;7.982;2024-01-30T01:58:26;98027.00;;;16.69;59.27
48390;BME280;34643;47.964;7.982;2024-01-30T02:00:54;98026.16;;;16.69;59.11
48390;BME280;34643;47.964;7.982;2024-01-30T02:03:19;98027.94;;;16.68;59.38
48390;BME280;34643;47.964;7.982;2024-01-30T02:05:46;98026.09;;;16.70;59.33
48390;BME280;34643;47.964;7.982;2024-01-30T02:08:11;98025.25;;;16.70;59.28
48390;BME280;34643;47.964;7.982;2024-01-30T02:10:37;98020.94;;;16.69;59.13
48390;BME280;34643;47.964;7.982;2024-01-30T02:13:02;98023.56;;;16.69;59.17
48390;BME280;34643;47.964;7.982;2024-01-30T02:15:28;98024.47;;;16.68;59.26
48390;BME280;34643;47.964;7.982;2024-01-30T02:17:54;98024.31;;;16.71;59.29
48390;BME280;34643;47.964;7.982;2024-01-30T02:20:19;98018.34;;;16.69;59.28
48390;BME280;34643;47.964;7.982;2024-01-30T02:22:45;98016.66;;;16.68;59.34
48390;BME280;34643;47.964;7.982;2024-01-30T02:25:11;98019.19;;;16.69;59.20
48390;BME280;34643;47.964;7.982;2024-01-30T02:27:36;98017.50;;;16.68;59.26
48390;BME280;34643;47.964;7.982;2024-01-30T02:30:02;98020.19;;;16.67;59.15
48390;BME280;34643;47.964;7.982;2024-01-30T02:32:29;98019.34;;;16.66;59.29
48390;BME280;34643;47.964;7.982;2024-01-30T02:34:54;98027.06;;;16.68;59.28
48390;BME280;34643;47.964;7.982;2024-01-30T02:37:19;98016.56;;;16.69;59.22
48390;BME280;34643;47.964;7.982;2024-01-30T02:39:44;98018.34;;;16.69;59.33
48390;BME280;34643;47.964;7.982;2024-01-30T02:42:10;98014.03;;;16.68;59.15
48390;BME280;34643;47.964;7.982;2024-01-30T02:44:35;98014.81;;;16.70;59.18
48390;BME280;34643;47.964;7.982;2024-01-30T02:47:00;98009.69;;;16.68;59.26
48390;BME280;34643;47.964;7.982;2024-01-30T02:49:26;98011.44;;;16.68;59.36
48390;BME280;34643;47.964;7.982;2024-01-30T02:51:51;98009.75;;;16.67;59.15
48390;BME280;34643;47.964;7.982;2024-01-30T02:54:16;98005.38;;;16.67;59.22
48390;BME280;34643;47.964;7.982;2024-01-30T02:56:42;98010.59;;;16.67;59.38
48390;BME280;34643;47.964;7.982;2024-01-30T02:59:07;98012.22;;;16.70;59.21
48390;BME280;34643;47.964;7.982;2024-01-30T03:01:32;98009.63;;;16.70;59.08
48390;BME280;34643;47.964;7.982;2024-01-30T03:03:59;98012.22;;;16.70;59.22
48390;BME280;34643;47.964;7.982;2024-01-30T03:06:24;98013.97;;;16.69;59.20
48390;BME280;34643;47.964;7.982;2024-01-30T03:08:49;98019.03;;;16.72;59.28
48390;BME280;34643;47.964;7.982;2024-01-30T03:11:15;98011.19;;;16.72;59.10
48390;BME280;34643;47.964;7.982;2024-01-30T03:13:40;98015.66;;;16.70;59.28
48390;BME280;34643;47.964;7.982;2024-01-30T03:16:05;98024.38;;;16.69;59.34
48390;BME280;34643;47.964;7.982;2024-01-30T03:18:31;98027.69;;;16.73;59.25
48390;BME280;34643;47.964;7.982;2024-01-30T03:20:56;98022.66;;;16.70;59.27
48390;BME280;34643;47.964;7.982;2024-01-30T03:23:21;98024.25;;;16.72;59.15
48390;BME280;34643;47.964;7.982;2024-01-30T03:25:47;98020.88;;;16.70;59.15
48390;BME280;34643;47.964;7.982;2024-01-30T03:28:13;98036.50;;;16.70;59.26
48390;BME280;34643;47.964;7.982;2024-01-30T03:30:38;98034.75;;;16.71;59.33
48390;BME280;34643;47.964;7.982;2024-01-30T03:33:04;98033.84;;;16.72;59.20
48390;BME280;34643;47.964;7.982;2024-01-30T03:35:29;98033.84;;;16.72;59.25
48390;BME280;34643;47.964;7.982;2024-01-30T03:37:54;98035.50;;;16.73;59.33
48390;BME280;34643;47.964;7.982;2024-01-30T03:40:20;98054.84;;;16.69;59.32
48390;BME280;34643;47.964;7.982;2024-01-30T03:42:45;98046.19;;;16.68;59.36
48390;BME280;34643;47.964;7.982;2024-01-30T03:45:10;98048.72;;;16.70;59.29
48390;BME280;34643;47.964;7.982;2024-01-30T03:47:36;98056.53;;;16.70;59.34
48390;BME280;34643;47.964;7.982;2024-01-30T03:50:01;98053.00;;;16.71;59.28
48390;BME280;34643;47.964;7.982;2024-01-30T03:52:26;98056.53;;;16.70;59.24
48390;BME280;34643;47.964;7.982;2024-01-30T03:54:51;98052.16;;;16.70;59.35
48390;BME280;34643;47.964;7.982;2024-01-30T03:57:18;98051.31;;;16.70;59.38
48390;BME280;34643;47.964;7.982;2024-01-30T03:59:43;98051.31;;;16.70;58.99
48390;BME280;34643;47.964;7.982;2024-01-30T04:02:10;98049.63;;;16.69;59.28
48390;BME280;34643;47.964;7.982;2024-01-30T04:04:36;98052.25;;;16.69;59.22
48390;BME280;34643;47.964;7.982;2024-01-30T04:07:05;98054.84;;;16.69;59.07
48390;BME280;34643;47.964;7.982;2024-01-30T04:09:30;98060.97;;;16.68;59.09
48390;BME280;34643;47.964;7.982;2024-01-30T04:11:57;98060.06;;;16.69;59.14
48390;BME280;34643;47.964;7.982;2024-01-30T04:16:23;98061.97;;;16.65;59.20
48390;BME280;34643;47.964;7.982;2024-01-30T04:18:48;98062.59;;;16.70;59.27
48390;BME280;34643;47.964;7.982;2024-01-30T04:21:14;98064.25;;;16.71;58.99
48390;BME280;34643;47.964;7.982;2024-01-30T04:23:40;98072.25;;;16.68;59.10
48390;BME280;34643;47.964;7.982;2024-01-30T04:26:06;98072.25;;;16.68;59.25
48390;BME280;34643;47.964;7.982;2024-01-30T04:28:31;98073.94;;;16.69;59.08
48390;BME280;34643;47.964;7.982;2024-01-30T04:30:56;98076.53;;;16.69;59.29
48390;BME280;34643;47.964;7.982;2024-01-30T04:33:22;98086.97;;;16.69;59.07
48390;BME280;34643;47.964;7.982;2024-01-30T04:35:47;98077.41;;;16.70;59.12
48390;BME280;34643;47.964;7.982;2024-01-30T04:38:12;98077.22;;;16.73;59.20
48390;BME280;34643;47.964;7.982;2024-01-30T04:40:39;98077.28;;;16.71;59.05
48390;BME280;34643;47.964;7.982;2024-01-30T04:43:04;98077.22;;;16.73;58.98
48390;BME280;34643;47.964;7.982;2024-01-30T04:45:30;98083.19;;;16.75;59.04
48390;BME280;34643;47.964;7.982;2024-01-30T04:47:55;98074.31;;;16.79;59.08
48390;BME280;34643;47.964;7.982;2024-01-30T04:50:20;98069.25;;;16.76;59.08
48390;BME280;34643;47.964;7.982;2024-01-30T04:52:45;98074.31;;;16.79;59.13
48390;BME280;34643;47.964;7.982;2024-01-30T04:55:11;98070.75;;;16.80;59.15
48390;BME280;34643;47.964;7.982;2024-01-30T04:57:36;98059.44;;;16.81;59.07
48390;BME280;34643;47.964;7.982;2024-01-30T05:00:01;98069.03;;;16.81;59.20
48390;BME280;34643;47.964;7.982;2024-01-30T05:02:27;98069.03;;;16.81;59.26
48390;BME280;34643;47.964;7.982;2024-01-30T05:04:52;98074.13;;;16.82;59.12
48390;BME280;34643;47.964;7.982;2024-01-30T05:07:18;98081.00;;;16.85;59.10
48390;BME280;34643;47.964;7.982;2024-01-30T05:09:43;98079.22;;;16.85;59.15
48390;BME280;34643;47.964;7.982;2024-01-30T05:12:08;98076.63;;;16.85;59.02
48390;BME280;34643;47.964;7.982;2024-01-30T05:14:34;98066.03;;;16.88;59.04
48390;BME280;34643;47.964;7.982;2024-01-30T05:16:59;98069.56;;;16.87;59.04
48390;BME280;34643;47.964;7.982;2024-01-30T05:19:24;98077.38;;;16.87;59.04
48390;BME280;34643;47.964;7.982;2024-01-30T05:21:50;98073.19;;;16.85;58.99
48390;BME280;34643;47.964;7.982;2024-01-30T05:24:15;98067.03;;;16.86;59.14
48390;BME280;34643;47.964;7.982;2024-01-30T05:26:40;98076.13;;;16.95;59.09
48390;BME280;34643;47.964;7.982;2024-01-30T05:29:06;98071.88;;;16.94;59.04
48390;BME280;34643;47.964;7.982;2024-01-30T05:31:31;98067.56;;;16.92;59.01
48390;BME280;34643;47.964;7.982;2024-01-30T05:33:57;98079.06;;;16.88;59.18
48390;BME280;34643;47.964;7.982;2024-01-30T05:36:22;98082.44;;;16.90;59.10
48390;BME280;34643;47.964;7.982;2024-01-30T05:38:48;98074.47;;;16.94;58.93
48390;BME280;34643;47.964;7.982;2024-01-30T05:41:13;98076.75;;;16.82;56.07
48390;BME280;34643;47.964;7.982;2024-01-30T05:43:38;98073.69;;;16.22;47.13
48390;BME280;34643;47.964;7.982;2024-01-30T05:46:04;98076.25;;;15.87;44.94
48390;BME280;34643;47.964;7.982;2024-01-30T05:48:29;98080.44;;;15.70;44.31
48390;BME280;34643;47.964;7.982;2024-01-30T05:50:54;98068.03;;;15.58;43.46
48390;BME280;34643;47.964;7.982;2024-01-30T05:53:19;98080.41;;;15.53;42.10
48390;BME280;34643;47.964;7.982;2024-01-30T05:55:45;98071.59;;;15.36;41.78
48390;BME280;34643;47.964;7.982;2024-01-30T05:58:11;98078.78;;;15.31;42.07
48390;BME280;34643;47.964;7.982;2024-01-30T06:00:36;98069.94;;;15.35;41.40
48390;BME280;34643;47.964;7.982;2024-01-30T06:03:01;98081.66;;;15.25;41.98
48390;BME280;34643;47.964;7.982;2024-01-30T06:05:27;98080.03;;;15.04;41.43
48390;BME280;34643;47.964;7.982;2024-01-30T06:07:52;98084.72;;;14.95;41.78
48390;BME280;34643;47.964;7.982;2024-01-30T06:10:18;98086.09;;;15.23;45.02
48390;BME280;34643;47.964;7.982;2024-01-30T06:12:43;98096.28;;;15.47;47.07
48390;BME280;34643;47.964;7.982;2024-01-30T06:15:09;98085.13;;;15.64;47.38
48390;BME280;34643;47.964;7.982;2024-01-30T06:17:35;98090.78;;;15.72;47.72
48390;BME280;34643;47.964;7.982;2024-01-30T06:20:00;98087.97;;;15.78;47.97
48390;BME280;34643;47.964;7.982;2024-01-30T06:22:25;98082.50;;;15.83;48.19
48390;BME280;34643;47.964;7.982;2024-01-30T06:24:51;98087.59;;;15.86;48.16
48390;BME280;34643;47.964;7.982;2024-01-30T06:27:16;98085.75;;;15.88;48.69
48390;BME280;34643;47.964;7.982;2024-01-30T06:29:42;98090.81;;;15.91;48.98
48390;BME280;34643;47.964;7.982;2024-01-30T06:32:08;98090.81;;;15.91;49.31
48390;BME280;34643;47.964;7.982;2024-01-30T06:34:33;98081.94;;;15.95;49.38
48390;BME280;34643;47.964;7.982;2024-01-30T06:36:58;98093.28;;;15.94;49.87
48390;BME280;34643;47.964;7.982;2024-01-30T06:39:24;98090.59;;;15.95;49.78
48390;BME280;34643;47.964;7.982;2024-01-30T06:41:50;98088.84;;;15.96;50.23
48390;BME280;34643;47.964;7.982;2024-01-30T06:44:15;98091.44;;;15.96;50.33
48390;BME280;34643;47.964;7.982;2024-01-30T06:46:40;98100.03;;;15.98;50.36
48390;BME280;34643;47.964;7.982;2024-01-30T06:49:06;98092.13;;;16.00;50.53
48390;BME280;34643;47.964;7.982;2024-01-30T06:51:31;98096.59;;;15.98;50.79
48390;BME280;34643;47.964;7.982;2024-01-30T06:53:56;98098.19;;;16.00;50.73
48390;BME280;34643;47.964;7.982;2024-01-30T06:56:21;98102.41;;;16.03;50.92
48390;BME280;34643;47.964;7.982;2024-01-30T06:58:50;98101.72;;;15.99;51.26
48390;BME280;34643;47.964;7.982;2024-01-30T07:01:16;98105.03;;;16.03;51.28
48390;BME280;34643;47.964;7.982;2024-01-30T07:03:42;98101.66;;;16.01;51.55
48390;BME280;34643;47.964;7.982;2024-01-30T07:06:07;98107.69;;;16.01;51.38
48390;BME280;34643;47.964;7.982;2024-01-30T07:08:33;98106.75;;;16.02;51.47
48390;BME280;34643;47.964;7.982;2024-01-30T07:10:58;98099.75;;;16.04;51.52
48390;BME280;34643;47.964;7.982;2024-01-30T07:13:24;98099.88;;;16.01;51.69
48390;BME280;34643;47.964;7.982;2024-01-30T07:15:49;98106.75;;;16.02;51.78
48390;BME280;34643;47.964;7.982;2024-01-30T07:18:15;98112.91;;;16.01;51.74
48390;BME280;34643;47.964;7.982;2024-01-30T07:20:40;98115.28;;;16.06;52.00
48390;BME280;34643;47.964;7.982;2024-01-30T07:23:14;98107.63;;;16.03;51.99
48390;BME280;34643;47.964;7.982;2024-01-30T07:25:41;98118.19;;;16.00;52.06
48390;BME280;34643;47.964;7.982;2024-01-30T07:28:10;98115.56;;;16.00;52.10
48390;BME280;34643;47.964;7.982;2024-01-30T07:30:36;98116.22;;;16.05;51.96
48390;BME280;34643;47.964;7.982;2024-01-30T07:33:01;98118.94;;;16.02;52.25
48390;BME280;34643;47.964;7.982;2024-01-30T07:35:26;98124.22;;;16.00;52.63
48390;BME280;34643;47.964;7.982;2024-01-30T07:37:52;98123.53;;;15.96;52.46
48390;BME280;34643;47.964;7.982;2024-01-30T07:41:53;98123.47;;;15.98;52.50
48390;BME280;34643;47.964;7.982;2024-01-30T07:44:18;98126.06;;;15.98;52.46
48390;BME280;34643;47.964;7.982;2024-01-30T07:46:43;98124.09;;;16.03;52.50
48390;BME280;34643;47.964;7.982;2024-01-30T07:49:08;98128.59;;;16.00;52.38
48390;BME280;34643;47.964;7.982;2024-01-30T07:51:35;98116.41;;;16.00;52.60
48390;BME280;34643;47.964;7.982;2024-01-30T07:54:00;98120.84;;;15.98;52.69
48390;BME280;34643;47.964;7.982;2024-01-30T07:56:25;98130.50;;;15.96;52.74
48390;BME280;34643;47.964;7.982;2024-01-30T07:58:51;98123.59;;;15.95;52.80
48390;BME280;34643;47.964;7.982;2024-01-30T08:01:16;98122.56;;;15.99;52.77
48390;BME280;34643;47.964;7.982;2024-01-30T08:03:41;98124.47;;;15.95;52.79
48390;BME280;34643;47.964;7.982;2024-01-30T08:06:07;98137.38;;;15.97;52.72
48390;BME280;34643;47.964;7.982;2024-01-30T08:08:32;98128.72;;;15.96;52.89
48390;BME280;34643;47.964;7.982;2024-01-30T08:10:57;98126.91;;;15.99;52.75
48390;BME280;34643;47.964;7.982;2024-01-30T08:13:23;98117.47;;;15.96;52.83
48390;BME280;34643;47.964;7.982;2024-01-30T08:15:48;98119.25;;;15.95;53.06
48390;BME280;34643;47.964;7.982;2024-01-30T08:18:13;98117.75;;;15.90;53.10
48390;BME280;34643;47.964;7.982;2024-01-30T08:20:38;98107.34;;;15.90;53.25
48390;BME280;34643;47.964;7.982;2024-01-30T08:23:04;98118.56;;;15.92;53.19
48390;BME280;34643;47.964;7.982;2024-01-30T08:25:29;98119.47;;;15.91;52.97
48390;BME280;34643;47.964;7.982;2024-01-30T08:27:55;98120.38;;;15.90;53.29
48390;BME280;34643;47.964;7.982;2024-01-30T08:30:20;98104.84;;;15.88;53.19
48390;BME280;34643;47.964;7.982;2024-01-30T08:32:45;98107.44;;;15.88;53.11
48390;BME280;34643;47.964;7.982;2024-01-30T08:35:11;98102.13;;;15.90;53.29
48390;BME280;34643;47.964;7.982;2024-01-30T08:37:38;98106.50;;;15.89;53.38
48390;BME280;34643;47.964;7.982;2024-01-30T08:40:04;98100.59;;;15.86;53.40
48390;BME280;34643;47.964;7.982;2024-01-30T08:42:29;98097.09;;;15.87;53.46
48390;BME280;34643;47.964;7.982;2024-01-30T08:44:55;98099.78;;;15.85;53.39
48390;BME280;34643;47.964;7.982;2024-01-30T08:47:21;98102.31;;;15.87;53.27
48390;BME280;34643;47.964;7.982;2024-01-30T08:49:46;98102.31;;;15.87;53.30
48390;BME280;34643;47.964;7.982;2024-01-30T08:52:11;98103.91;;;15.89;53.32
48390;BME280;34643;47.964;7.982;2024-01-30T08:54:37;98094.63;;;15.84;53.42
48390;BME280;34643;47.964;7.982;2024-01-30T08:57:02;98093.56;;;15.88;53.27
48390;BME280;34643;47.964;7.982;2024-01-30T08:59:28;98094.69;;;15.82;53.46
48390;BME280;34643;47.964;7.982;2024-01-30T09:01:54;98100.75;;;15.83;53.46
48390;BME280;34643;47.964;7.982;2024-01-30T09:04:23;98093.88;;;15.82;53.55
48390;BME280;34643;47.964;7.982;2024-01-30T09:06:48;98099.00;;;15.83;53.45
48390;BME280;34643;47.964;7.982;2024-01-30T09:09:14;98102.56;;;15.81;53.43
48390;BME280;34643;47.964;7.982;2024-01-30T09:11:39;98104.28;;;15.82;53.62
48390;BME280;34643;47.964;7.982;2024-01-30T09:14:05;98099.06;;;15.82;53.44
48390;BME280;34643;47.964;7.982;2024-01-30T09:16:30;98105.19;;;15.81;53.50
48390;BME280;34643;47.964;7.982;2024-01-30T09:18:55;98106.13;;;15.80;53.59
48390;BME280;34643;47.964;7.982;2024-01-30T09:21:20;98106.03;;;15.81;53.41
48390;BME280;34643;47.964;7.982;2024-01-30T09:23:46;98102.56;;;15.81;53.50
48390;BME280;34643;47.964;7.982;2024-01-30T09:26:11;98111.53;;;15.75;53.62
48390;BME280;34643;47.964;7.982;2024-01-30T09:28:37;98116.75;;;15.73;53.69
48390;BME280;34643;47.964;7.982;2024-01-30T09:31:03;98115.94;;;15.73;53.70
48390;BME280;34643;47.964;7.982;2024-01-30T09:33:28;98114.88;;;15.77;53.50
48390;BME280;34643;47.964;7.982;2024-01-30T09:35:54;98120.16;;;15.75;53.63
48390;BME280;34643;47.964;7.982;2024-01-30T09:38:19;98128.91;;;15.74;53.59
48390;BME280;34643;47.964;7.982;2024-01-30T09:40:44;98125.41;;;15.74;53.75
48390;BME280;34643;47.964;7.982;2024-01-30T09:43:14;98125.31;;;15.77;53.59
48390;BME280;34643;47.964;7.982;2024-01-30T09:45:42;98135.78;;;15.75;53.68
48390;BME280;34643;47.964;7.982;2024-01-30T09:48:07;98122.97;;;15.71;53.86
48390;BME280;34643;47.964;7.982;2024-01-30T09:50:33;98120.38;;;15.71;53.79
48390;BME280;34643;47.964;7.982;2024-01-30T09:53:01;98122.09;;;15.70;53.73
48390;BME280;34643;47.964;7.982;2024-01-30T09:55:26;98122.91;;;15.72;53.65
48390;BME280;34643;47.964;7.982;2024-01-30T09:57:52;98133.38;;;15.71;53.86
48390;BME280;34643;47.964;7.982;2024-01-30T10:00:17;98122.81;;;15.74;53.74
48390;BME280;34643;47.964;7.982;2024-01-30T10:02:43;98128.91;;;15.74;53.57
48390;BME280;34643;47.964;7.982;2024-01-30T10:05:08;98135.28;;;15.67;53.83
48390;BME280;34643;47.964;7.982;2024-01-30T10:07:33;98134.28;;;15.70;53.76
48390;BME280;34643;47.964;7.982;2024-01-30T10:09:59;98135.22;;;15.69;53.93
48390;BME280;34643;47.964;7.982;2024-01-30T10:12:27;98127.25;;;15.72;53.66
48390;BME280;34643;47.964;7.982;2024-01-30T10:14:53;98130.84;;;15.69;53.68
48390;BME280;34643;47.964;7.982;2024-01-30T10:17:19;98122.97;;;15.71;53.72
48390;BME280;34643;47.964;7.982;2024-01-30T10:19:46;98129.00;;;15.71;53.78
48390;BME280;34643;47.964;7.982;2024-01-30T10:22:11;98128.09;;;15.72;53.69
48390;BME280;34643;47.964;7.982;2024-01-30T10:24:37;98122.97;;;15.71;53.72
48390;BME280;34643;47.964;7.982;2024-01-30T10:27:02;98130.06;;;15.67;53.92
48390;BME280;34643;47.964;7.982;2024-01-30T10:29:28;98126.53;;;15.68;53.85
48390;BME280;34643;47.964;7.982;2024-01-30T10:32:00;98123.94;;;15.68;53.76
48390;BME280;34643;47.964;7.982;2024-01-30T10:34:26;98125.84;;;15.65;53.91
48390;BME280;34643;47.964;7.982;2024-01-30T10:36:54;98128.31;;;15.68;53.82
48390;BME280;34643;47.964;7.982;2024-01-30T10:39:23;98122.41;;;15.64;53.90
48390;BME280;34643;47.964;7.982;2024-01-30T10:41:48;98106.91;;;15.61;53.98
48390;BME280;34643;47.964;7.982;2024-01-30T10:44:17;98116.34;;;15.64;53.89
48390;BME280;34643;47.964;7.982;2024-01-30T10:46:45;98111.91;;;15.66;53.88
48390;BME280;34643;47.964;7.982;2024-01-30T10:49:14;98114.72;;;15.61;53.96
48390;BME280;34643;47.964;7.982;2024-01-30T10:51:40;98108.63;;;15.62;53.90
48390;BME280;34643;47.964;7.982;2024-01-30T10:54:06;98106.78;;;15.64;54.08
48390;BME280;34643;47.964;7.982;2024-01-30T10:56:32;98115.66;;;15.60;54.08
48390;BME280;34643;47.964;7.982;2024-01-30T10:58:58;98114.88;;;15.58;54.08
48390;BME280;34643;47.964;7.982;2024-01-30T11:01:23;98118.19;;;15.62;53.86
48390;BME280;34643;47.964;7.982;2024-01-30T11:03:50;98113.88;;;15.61;53.93
48390;BME280;34643;47.964;7.982;2024-01-30T11:06:16;98116.50;;;15.61;54.06
48390;BME280;34643;47.964;7.982;2024-01-30T11:08:43;98114.78;;;15.59;53.99
48390;BME280;34643;47.964;7.982;2024-01-30T11:11:09;98114.72;;;15.61;53.93
48390;BME280;34643;47.964;7.982;2024-01-30T11:13:35;98110.44;;;15.60;53.87
48390;BME280;34643;47.964;7.982;2024-01-30T11:16:04;98100.03;;;15.60;53.92
48390;BME280;34643;47.964;7.982;2024-01-30T11:18:30;98094.84;;;15.60;53.99
48390;BME280;34643;47.964;7.982;2024-01-30T11:20:56;98104.38;;;15.59;54.08
48390;BME280;34643;47.964;7.982;2024-01-30T11:23:22;98096.81;;;15.55;54.03
48390;BME280;34643;47.964;7.982;2024-01-30T11:25:48;98100.03;;;15.60;53.94
48390;BME280;34643;47.964;7.982;2024-01-30T11:28:14;98098.41;;;15.57;54.06
48390;BME280;34643;47.964;7.982;2024-01-30T11:30:40;98102.00;;;15.55;54.21
48390;BME280;34643;47.964;7.982;2024-01-30T11:33:09;98096.81;;;15.55;54.03
48390;BME280;34643;47.964;7.982;2024-01-30T11:35:45;98102.00;;;15.55;54.12
48390;BME280;34643;47.964;7.982;2024-01-30T11:38:13;98091.53;;;15.56;54.14
48390;BME280;34643;47.964;7.982;2024-01-30T11:40:38;98093.19;;;15.57;54.09
48390;BME280;34643;47.964;7.982;2024-01-30T11:43:04;98094.19;;;15.55;54.01
48390;BME280;34643;47.964;7.982;2024-01-30T11:45:30;98099.41;;;15.55;54.01
48390;BME280;34643;47.964;7.982;2024-01-30T11:47:56;98094.28;;;15.53;54.16
48390;BME280;34643;47.964;7.982;2024-01-30T11:50:22;98084.56;;;15.57;54.10
48390;BME280;34643;47.964;7.982;2024-01-30T11:52:47;98086.09;;;15.61;53.91
48390;BME280;34643;47.964;7.982;2024-01-30T11:55:13;98087.16;;;15.57;54.16
48390;BME280;34643;47.964;7.982;2024-01-30T11:57:39;98081.75;;;15.62;54.20
48390;BME280;34643;47.964;7.982;2024-01-30T12:00:04;98078.16;;;15.64;54.11
48390;BME280;34643;47.964;7.982;2024-01-30T12:02:38;98073.56;;;15.69;53.92
48390;BME280;34643;47.964;7.982;2024-01-30T12:05:07;98069.03;;;15.74;53.99
48390;BME280;34643;47.964;7.982;2024-01-30T12:07:32;98071.50;;;15.77;53.94
48390;BME280;34643;47.964;7.982;2024-01-30T12:09:58;98068.72;;;15.81;53.96
48390;BME280;34643;47.964;7.982;2024-01-30T12:12:27;98069.50;;;15.83;53.98
48390;BME280;34643;47.964;7.982;2024-01-30T12:14:52;98070.19;;;15.86;54.10
48390;BME280;34643;47.964;7.982;2024-01-30T12:19:49;98068.22;;;15.91;54.01
48390;BME280;34643;47.964;7.982;2024-01-30T12:22:14;98063.69;;;15.95;53.98
48390;BME280;34643;47.964;7.982;2024-01-30T12:24:40;98064.47;;;15.97;53.97
48390;BME280;34643;47.964;7.982;2024-01-30T12:27:05;98067.06;;;15.97;54.15
48390;BME280;34643;47.964;7.982;2024-01-30T12:29:34;98065.41;;;15.96;53.98
48390;BME280;34643;47.964;7.982;2024-01-30T12:31:59;98059.13;;;16.00;54.12
48390;BME280;34643;47.964;7.982;2024-01-30T12:34:25;98067.69;;;16.02;54.13
48390;BME280;34643;47.964;7.982;2024-01-30T12:36:50;98060.81;;;16.01;53.95
48390;BME280;34643;47.964;7.982;2024-01-30T12:39:15;98063.28;;;16.04;54.19
48390;BME280;34643;47.964;7.982;2024-01-30T12:41:41;98067.63;;;16.04;54.17
48390;BME280;34643;47.964;7.982;2024-01-30T12:44:06;98070.16;;;16.05;54.05
48390;BME280;34643;47.964;7.982;2024-01-30T12:46:33;98061.50;;;16.05;54.21
48390;BME280;34643;47.964;7.982;2024-01-30T12:48:59;98071.00;;;16.06;54.16
48390;BME280;34643;47.964;7.982;2024-01-30T12:51:24;98068.31;;;16.07;54.29
48390;BME280;34643;47.964;7.982;2024-01-30T12:53:49;98068.25;;;16.09;54.24
48390;BME280;34643;47.964;7.982;2024-01-30T12:56:15;98066.59;;;16.08;54.32
48390;BME280;34643;47.964;7.982;2024-01-30T12:58:40;98060.56;;;16.06;54.17